sensor_id;sensor_type;location;lat;lon;timestamp;P1;durP1;ratioP1;P2;durP2;ratioP2
50126;SDS011;36024;47.974;16.398;2022-12-07T00:02:06;10.37;;;8.53;;
50126;SDS011;36024;47.974;16.398;2022-12-07T00:04:33;10.77;;;8.73;;
50126;SDS011;36024;47.974;16.398;2022-12-07T00:07:00;10.90;;;8.43;;
50126;SDS011;36024;47.974;16.398;2022-12-07T00:09:27;10.70;;;8.47;;
50126;SDS011;36024;47.974;16.398;2022-12-07T00:11:54;10.37;;;8.53;;
50126;SDS011;36024;47.974;16.398;2022-12-07T00:14:21;10.63;;;8.53;;
50126;SDS011;36024;47.974;16.398;2022-12-07T00:16:50;10.07;;;8.20;;
50126;SDS011;36024;47.974;16.398;2022-12-07T00:19:18;9.10;;;7.87;;
50126;SDS011;36024;47.974;16.398;2022-12-07T00:21:44;10.73;;;8.13;;
50126;SDS011;36024;47.974;16.398;2022-12-07T00:24:11;10.87;;;8.30;;
50126;SDS011;36024;47.974;16.398;2022-12-07T00:26:39;9.17;;;7.90;;
50126;SDS011;36024;47.974;16.398;2022-12-07T00:29:13;10.50;;;8.00;;
50126;SDS011;36024;47.974;16.398;2022-12-07T00:31:43;10.20;;;8.07;;
50126;SDS011;36024;47.974;16.398;2022-12-07T00:34:14;11.30;;;9.13;;
50126;SDS011;36024;47.974;16.398;2022-12-07T00:36:44;11.67;;;9.07;;
50126;SDS011;36024;47.974;16.398;2022-12-07T00:39:14;11.20;;;9.00;;
50126;SDS011;36024;47.974;16.398;2022-12-07T00:41:41;11.10;;;9.43;;
50126;SDS011;36024;47.974;16.398;2022-12-07T00:44:09;10.50;;;8.57;;
50126;SDS011;36024;47.974;16.398;2022-12-07T00:46:36;9.83;;;8.73;;
50126;SDS011;36024;47.974;16.398;2022-12-07T00:49:03;11.37;;;9.63;;
50126;SDS011;36024;47.974;16.398;2022-12-07T00:51:32;11.10;;;9.10;;
50126;SDS011;36024;47.974;16.398;2022-12-07T00:53:59;11.20;;;8.70;;
50126;SDS011;36024;47.974;16.398;2022-12-07T00:56:26;12.10;;;9.30;;
50126;SDS011;36024;47.974;16.398;2022-12-07T00:59:02;12.50;;;9.37;;
50126;SDS011;36024;47.974;16.398;2022-12-07T01:01:31;12.17;;;8.67;;
50126;SDS011;36024;47.974;16.398;2022-12-07T01:04:02;10.90;;;9.27;;
50126;SDS011;36024;47.974;16.398;2022-12-07T01:06:29;11.50;;;8.97;;
50126;SDS011;36024;47.974;16.398;2022-12-07T01:08:56;11.50;;;8.33;;
50126;SDS011;36024;47.974;16.398;2022-12-07T01:11:25;10.17;;;8.33;;
50126;SDS011;36024;47.974;16.398;2022-12-07T01:13:56;11.23;;;8.80;;
50126;SDS011;36024;47.974;16.398;2022-12-07T01:16:24;8.70;;;7.33;;
50126;SDS011;36024;47.974;16.398;2022-12-07T01:18:53;10.27;;;7.97;;
50126;SDS011;36024;47.974;16.398;2022-12-07T01:23:52;10.07;;;7.47;;
50126;SDS011;36024;47.974;16.398;2022-12-07T01:26:20;11.57;;;8.00;;
50126;SDS011;36024;47.974;16.398;2022-12-07T01:28:48;8.83;;;7.37;;
50126;SDS011;36024;47.974;16.398;2022-12-07T01:31:16;7.60;;;6.80;;
50126;SDS011;36024;47.974;16.398;2022-12-07T01:33:45;10.37;;;6.90;;
50126;SDS011;36024;47.974;16.398;2022-12-07T01:38:51;7.43;;;6.03;;
50126;SDS011;36024;47.974;16.398;2022-12-07T01:41:20;5.47;;;4.97;;
50126;SDS011;36024;47.974;16.398;2022-12-07T01:44:07;4.33;;;3.87;;
50126;SDS011;36024;47.974;16.398;2022-12-07T01:46:45;5.70;;;4.73;;
50126;SDS011;36024;47.974;16.398;2022-12-07T01:49:24;5.37;;;4.80;;
50126;SDS011;36024;47.974;16.398;2022-12-07T01:51:53;5.03;;;4.43;;
50126;SDS011;36024;47.974;16.398;2022-12-07T01:54:24;6.10;;;4.57;;
50126;SDS011;36024;47.974;16.398;2022-12-07T01:56:51;5.53;;;5.03;;
50126;SDS011;36024;47.974;16.398;2022-12-07T01:59:21;5.07;;;4.57;;
50126;SDS011;36024;47.974;16.398;2022-12-07T02:01:51;6.03;;;5.10;;
50126;SDS011;36024;47.974;16.398;2022-12-07T02:04:18;5.27;;;4.77;;
50126;SDS011;36024;47.974;16.398;2022-12-07T02:06:45;5.90;;;4.80;;
50126;SDS011;36024;47.974;16.398;2022-12-07T02:09:13;5.80;;;5.10;;
50126;SDS011;36024;47.974;16.398;2022-12-07T02:11:40;5.93;;;5.07;;
50126;SDS011;36024;47.974;16.398;2022-12-07T02:14:07;5.67;;;5.07;;
50126;SDS011;36024;47.974;16.398;2022-12-07T02:22:18;7.13;;;4.73;;
50126;SDS011;36024;47.974;16.398;2022-12-07T02:24:53;5.27;;;4.77;;
50126;SDS011;36024;47.974;16.398;2022-12-07T02:37:58;5.13;;;4.63;;
50126;SDS011;36024;47.974;16.398;2022-12-07T02:43:19;5.60;;;5.00;;
50126;SDS011;36024;47.974;16.398;2022-12-07T02:45:50;5.13;;;4.63;;
50126;SDS011;36024;47.974;16.398;2022-12-07T02:48:18;5.50;;;4.90;;
50126;SDS011;36024;47.974;16.398;2022-12-07T02:50:50;5.23;;;4.70;;
50126;SDS011;36024;47.974;16.398;2022-12-07T02:56:02;5.23;;;4.73;;
50126;SDS011;36024;47.974;16.398;2022-12-07T03:01:30;5.73;;;5.23;;
50126;SDS011;36024;47.974;16.398;2022-12-07T03:04:17;5.70;;;4.73;;
50126;SDS011;36024;47.974;16.398;2022-12-07T03:06:51;5.40;;;4.90;;
50126;SDS011;36024;47.974;16.398;2022-12-07T03:15:14;5.50;;;4.83;;
50126;SDS011;36024;47.974;16.398;2022-12-07T03:17:45;5.10;;;4.60;;
50126;SDS011;36024;47.974;16.398;2022-12-07T03:20:13;5.20;;;4.70;;
50126;SDS011;36024;47.974;16.398;2022-12-07T03:22:42;5.47;;;4.97;;
50126;SDS011;36024;47.974;16.398;2022-12-07T03:25:10;4.93;;;4.43;;
50126;SDS011;36024;47.974;16.398;2022-12-07T03:27:42;4.70;;;4.23;;
50126;SDS011;36024;47.974;16.398;2022-12-07T03:30:15;5.13;;;4.63;;
50126;SDS011;36024;47.974;16.398;2022-12-07T03:33:03;4.20;;;3.80;;
50126;SDS011;36024;47.974;16.398;2022-12-07T03:36:04;4.30;;;3.90;;
50126;SDS011;36024;47.974;16.398;2022-12-07T03:38:40;4.67;;;4.27;;
50126;SDS011;36024;47.974;16.398;2022-12-07T03:41:14;5.40;;;4.30;;
50126;SDS011;36024;47.974;16.398;2022-12-07T03:43:55;5.07;;;4.27;;
50126;SDS011;36024;47.974;16.398;2022-12-07T03:49:29;4.87;;;3.90;;
50126;SDS011;36024;47.974;16.398;2022-12-07T03:52:17;4.67;;;4.27;;
50126;SDS011;36024;47.974;16.398;2022-12-07T03:54:51;3.90;;;3.50;;
50126;SDS011;36024;47.974;16.398;2022-12-07T03:57:23;4.03;;;3.63;;
50126;SDS011;36024;47.974;16.398;2022-12-07T03:59:51;4.27;;;3.73;;
50126;SDS011;36024;47.974;16.398;2022-12-07T04:02:18;4.03;;;3.63;;
50126;SDS011;36024;47.974;16.398;2022-12-07T04:04:44;4.47;;;4.07;;
50126;SDS011;36024;47.974;16.398;2022-12-07T04:07:11;4.60;;;3.70;;
50126;SDS011;36024;47.974;16.398;2022-12-07T04:09:39;4.40;;;4.00;;
50126;SDS011;36024;47.974;16.398;2022-12-07T04:12:06;4.67;;;4.17;;
50126;SDS011;36024;47.974;16.398;2022-12-07T04:14:33;4.80;;;4.30;;
50126;SDS011;36024;47.974;16.398;2022-12-07T04:17:00;5.63;;;4.70;;
50126;SDS011;36024;47.974;16.398;2022-12-07T04:19:30;4.93;;;4.43;;
50126;SDS011;36024;47.974;16.398;2022-12-07T04:21:59;5.47;;;4.50;;
50126;SDS011;36024;47.974;16.398;2022-12-07T04:24:27;4.87;;;4.33;;
50126;SDS011;36024;47.974;16.398;2022-12-07T04:26:54;5.60;;;4.70;;
50126;SDS011;36024;47.974;16.398;2022-12-07T04:29:21;5.27;;;4.77;;
50126;SDS011;36024;47.974;16.398;2022-12-07T04:31:49;5.03;;;4.53;;
50126;SDS011;36024;47.974;16.398;2022-12-07T04:34:16;5.67;;;4.73;;
50126;SDS011;36024;47.974;16.398;2022-12-07T04:36:44;5.60;;;5.00;;
50126;SDS011;36024;47.974;16.398;2022-12-07T04:39:26;6.30;;;4.83;;
50126;SDS011;36024;47.974;16.398;2022-12-07T04:41:54;5.70;;;4.97;;
50126;SDS011;36024;47.974;16.398;2022-12-07T04:44:22;5.77;;;5.17;;
50126;SDS011;36024;47.974;16.398;2022-12-07T04:46:51;6.70;;;5.27;;
50126;SDS011;36024;47.974;16.398;2022-12-07T04:49:18;5.80;;;5.20;;
50126;SDS011;36024;47.974;16.398;2022-12-07T04:51:45;6.60;;;5.60;;
50126;SDS011;36024;47.974;16.398;2022-12-07T04:54:13;6.27;;;5.57;;
50126;SDS011;36024;47.974;16.398;2022-12-07T04:56:40;6.63;;;5.20;;
50126;SDS011;36024;47.974;16.398;2022-12-07T04:59:08;7.57;;;5.80;;
50126;SDS011;36024;47.974;16.398;2022-12-07T05:01:36;6.23;;;5.43;;
50126;SDS011;36024;47.974;16.398;2022-12-07T05:04:03;6.83;;;5.47;;
50126;SDS011;36024;47.974;16.398;2022-12-07T05:06:30;7.27;;;5.67;;
50126;SDS011;36024;47.974;16.398;2022-12-07T05:08:57;6.33;;;5.50;;
50126;SDS011;36024;47.974;16.398;2022-12-07T05:11:24;6.90;;;5.60;;
50126;SDS011;36024;47.974;16.398;2022-12-07T05:14:13;6.63;;;5.70;;
50126;SDS011;36024;47.974;16.398;2022-12-07T05:16:42;7.53;;;6.13;;
50126;SDS011;36024;47.974;16.398;2022-12-07T05:19:10;7.20;;;5.63;;
50126;SDS011;36024;47.974;16.398;2022-12-07T05:21:37;7.33;;;6.10;;
50126;SDS011;36024;47.974;16.398;2022-12-07T05:24:05;7.50;;;6.30;;
50126;SDS011;36024;47.974;16.398;2022-12-07T05:26:32;6.37;;;5.47;;
50126;SDS011;36024;47.974;16.398;2022-12-07T05:29:00;6.67;;;5.70;;
50126;SDS011;36024;47.974;16.398;2022-12-07T05:31:27;7.03;;;5.77;;
50126;SDS011;36024;47.974;16.398;2022-12-07T05:33:54;8.80;;;6.33;;
50126;SDS011;36024;47.974;16.398;2022-12-07T05:36:21;7.03;;;6.00;;
50126;SDS011;36024;47.974;16.398;2022-12-07T05:38:48;6.87;;;6.00;;
50126;SDS011;36024;47.974;16.398;2022-12-07T05:41:16;6.83;;;5.97;;
50126;SDS011;36024;47.974;16.398;2022-12-07T05:44:07;7.33;;;6.20;;
50126;SDS011;36024;47.974;16.398;2022-12-07T05:46:34;7.73;;;6.27;;
50126;SDS011;36024;47.974;16.398;2022-12-07T05:49:02;9.33;;;5.80;;
50126;SDS011;36024;47.974;16.398;2022-12-07T05:51:28;6.90;;;5.50;;
50126;SDS011;36024;47.974;16.398;2022-12-07T05:53:55;8.00;;;6.10;;
50126;SDS011;36024;47.974;16.398;2022-12-07T05:56:22;7.73;;;5.83;;
50126;SDS011;36024;47.974;16.398;2022-12-07T05:58:49;7.77;;;6.17;;
50126;SDS011;36024;47.974;16.398;2022-12-07T06:01:35;7.27;;;6.07;;
50126;SDS011;36024;47.974;16.398;2022-12-07T06:04:03;7.40;;;5.73;;
50126;SDS011;36024;47.974;16.398;2022-12-07T06:06:30;7.17;;;6.33;;
50126;SDS011;36024;47.974;16.398;2022-12-07T06:08:58;7.27;;;6.07;;
50126;SDS011;36024;47.974;16.398;2022-12-07T06:11:25;6.93;;;5.90;;
50126;SDS011;36024;47.974;16.398;2022-12-07T06:14:11;7.13;;;5.90;;
50126;SDS011;36024;47.974;16.398;2022-12-07T06:16:38;7.47;;;6.10;;
50126;SDS011;36024;47.974;16.398;2022-12-07T06:19:05;6.90;;;5.50;;
50126;SDS011;36024;47.974;16.398;2022-12-07T06:21:32;7.77;;;6.40;;
50126;SDS011;36024;47.974;16.398;2022-12-07T06:23:59;7.30;;;6.20;;
50126;SDS011;36024;47.974;16.398;2022-12-07T06:26:26;6.90;;;6.20;;
50126;SDS011;36024;47.974;16.398;2022-12-07T06:28:54;6.80;;;5.87;;
50126;SDS011;36024;47.974;16.398;2022-12-07T06:31:21;10.63;;;6.40;;
50126;SDS011;36024;47.974;16.398;2022-12-07T06:33:48;7.17;;;6.00;;
50126;SDS011;36024;47.974;16.398;2022-12-07T06:36:15;8.17;;;6.70;;
50126;SDS011;36024;47.974;16.398;2022-12-07T06:38:45;6.47;;;5.77;;
50126;SDS011;36024;47.974;16.398;2022-12-07T06:41:14;7.33;;;5.47;;
50126;SDS011;36024;47.974;16.398;2022-12-07T06:43:41;7.07;;;5.50;;
50126;SDS011;36024;47.974;16.398;2022-12-07T06:46:08;8.33;;;5.73;;
50126;SDS011;36024;47.974;16.398;2022-12-07T10:34:20;2.20;;;2.00;;
50126;SDS011;36024;47.974;16.398;2022-12-07T10:36:52;2.10;;;1.80;;
50126;SDS011;36024;47.974;16.398;2022-12-07T10:39:21;2.53;;;2.10;;
50126;SDS011;36024;47.974;16.398;2022-12-07T20:01:25;4.00;;;2.83;;
50126;SDS011;36024;47.974;16.398;2022-12-07T20:03:53;2.97;;;2.70;;
50126;SDS011;36024;47.974;16.398;2022-12-07T20:06:20;3.23;;;2.93;;
50126;SDS011;36024;47.974;16.398;2022-12-07T20:08:48;3.70;;;3.17;;
50126;SDS011;36024;47.974;16.398;2022-12-07T20:11:17;4.00;;;3.30;;
50126;SDS011;36024;47.974;16.398;2022-12-07T20:14:07;4.00;;;3.43;;
50126;SDS011;36024;47.974;16.398;2022-12-07T20:16:35;2.97;;;2.67;;
50126;SDS011;36024;47.974;16.398;2022-12-07T20:19:03;3.53;;;3.13;;
50126;SDS011;36024;47.974;16.398;2022-12-07T20:21:30;3.30;;;2.83;;
50126;SDS011;36024;47.974;16.398;2022-12-07T20:24:01;3.87;;;3.47;;
50126;SDS011;36024;47.974;16.398;2022-12-07T20:26:28;3.00;;;2.70;;
50126;SDS011;36024;47.974;16.398;2022-12-07T20:28:56;3.40;;;3.10;;
50126;SDS011;36024;47.974;16.398;2022-12-07T20:31:27;3.40;;;3.10;;
50126;SDS011;36024;47.974;16.398;2022-12-07T20:33:54;3.17;;;2.87;;
50126;SDS011;36024;47.974;16.398;2022-12-07T20:36:21;3.77;;;3.10;;
50126;SDS011;36024;47.974;16.398;2022-12-07T20:38:48;4.00;;;3.57;;
50126;SDS011;36024;47.974;16.398;2022-12-07T20:41:19;4.00;;;3.30;;
50126;SDS011;36024;47.974;16.398;2022-12-07T20:44:05;4.47;;;3.73;;
50126;SDS011;36024;47.974;16.398;2022-12-07T20:46:32;4.20;;;3.47;;
50126;SDS011;36024;47.974;16.398;2022-12-07T20:48:59;5.13;;;4.20;;
50126;SDS011;36024;47.974;16.398;2022-12-07T20:51:27;4.73;;;4.10;;
50126;SDS011;36024;47.974;16.398;2022-12-07T20:53:54;6.67;;;4.40;;
50126;SDS011;36024;47.974;16.398;2022-12-07T20:56:24;5.30;;;4.27;;
50126;SDS011;36024;47.974;16.398;2022-12-07T20:58:53;5.73;;;4.47;;
50126;SDS011;36024;47.974;16.398;2022-12-07T21:01:21;5.53;;;4.73;;
50126;SDS011;36024;47.974;16.398;2022-12-07T21:03:48;5.50;;;4.43;;
50126;SDS011;36024;47.974;16.398;2022-12-07T21:06:16;5.53;;;4.60;;
50126;SDS011;36024;47.974;16.398;2022-12-07T21:08:46;4.93;;;4.20;;
50126;SDS011;36024;47.974;16.398;2022-12-07T21:11:15;5.83;;;4.60;;
50126;SDS011;36024;47.974;16.398;2022-12-07T21:13:43;5.37;;;4.77;;
50126;SDS011;36024;47.974;16.398;2022-12-07T21:16:11;5.93;;;4.50;;
50126;SDS011;36024;47.974;16.398;2022-12-07T21:18:39;5.50;;;4.37;;
50126;SDS011;36024;47.974;16.398;2022-12-07T21:21:07;5.40;;;4.60;;
50126;SDS011;36024;47.974;16.398;2022-12-07T21:23:34;4.93;;;4.37;;
50126;SDS011;36024;47.974;16.398;2022-12-07T21:26:09;5.27;;;4.17;;
50126;SDS011;36024;47.974;16.398;2022-12-07T21:28:36;5.63;;;4.30;;
50126;SDS011;36024;47.974;16.398;2022-12-07T21:31:03;5.33;;;4.20;;
50126;SDS011;36024;47.974;16.398;2022-12-07T21:33:39;5.10;;;4.10;;
50126;SDS011;36024;47.974;16.398;2022-12-07T21:36:06;4.93;;;4.43;;
